createdAt,value
2023-01-28T00:00:56.946Z,91.21
2023-01-28T00:03:24.148Z,91.05
2023-01-28T00:05:52.257Z,91.23
2023-01-28T00:08:19.264Z,90.97
2023-01-28T00:10:46.283Z,90.55
2023-01-28T00:13:14.873Z,91.01
2023-01-28T00:15:42.668Z,90.94
2023-01-28T00:18:09.967Z,90.78
2023-01-28T00:20:37.090Z,91.13
2023-01-28T00:23:04.197Z,90.46
2023-01-28T00:25:31.631Z,89.89
2023-01-28T00:27:58.865Z,90.00
2023-01-28T00:30:25.831Z,90.17
2023-01-28T00:32:55.627Z,90.37
2023-01-28T00:35:22.733Z,90.52
2023-01-28T00:37:49.750Z,90.46
2023-01-28T00:40:17.281Z,89.95
2023-01-28T00:42:44.336Z,89.84
2023-01-28T00:45:11.679Z,89.79
2023-01-28T00:47:38.751Z,89.78
2023-01-28T00:50:06.477Z,90.06
2023-01-28T00:52:33.506Z,90.03
2023-01-28T00:55:01.127Z,90.27
2023-01-28T00:57:28.170Z,90.41
2023-01-28T00:59:55.186Z,90.15
2023-01-28T01:02:23.090Z,90.52
2023-01-28T01:04:59.085Z,90.45
2023-01-28T01:07:41.497Z,90.63
2023-01-28T01:10:18.227Z,90.80
2023-01-28T01:12:49.659Z,91.03
2023-01-28T01:15:18.984Z,90.83
2023-01-28T01:17:49.042Z,90.43
2023-01-28T01:20:20.798Z,90.48
2023-01-28T01:22:48.527Z,90.67
2023-01-28T01:25:17.578Z,90.82
2023-01-28T01:27:48.418Z,90.24
2023-01-28T01:30:17.073Z,89.91
2023-01-28T01:32:44.133Z,90.65
2023-01-28T01:35:11.419Z,90.37
2023-01-28T01:37:38.447Z,90.17
2023-01-28T01:40:06.325Z,89.74
2023-01-28T01:42:33.772Z,89.86
2023-01-28T01:45:07.145Z,89.67
2023-01-28T01:48:05.873Z,90.10
2023-01-28T01:50:42.156Z,89.51
2023-01-28T01:53:16.076Z,88.91
2023-01-28T01:55:49.969Z,89.28
2023-01-28T01:58:21.647Z,89.44
2023-01-28T02:00:48.658Z,89.11
2023-01-28T02:03:21.834Z,89.21
2023-01-28T02:05:50.819Z,89.32
2023-01-28T02:08:25.558Z,89.48
2023-01-28T02:11:05.372Z,90.60
2023-01-28T02:13:57.111Z,90.30
2023-01-28T02:16:25.447Z,90.36
2023-01-28T02:18:52.497Z,90.17
2023-01-28T02:21:22.341Z,90.00
2023-01-28T02:24:16.576Z,89.53
2023-01-28T02:27:11.367Z,89.98
2023-01-28T02:30:16.364Z,89.68
2023-01-28T02:33:07.013Z,89.70
2023-01-28T02:35:53.624Z,89.76
2023-01-28T02:38:33.167Z,89.85
2023-01-28T02:41:13.945Z,89.72
2023-01-28T02:43:47.008Z,89.29
2023-01-28T02:46:44.604Z,89.38
2023-01-28T02:49:25.865Z,89.58
2023-01-28T02:52:42.137Z,89.66
2023-01-28T02:55:34.104Z,89.48
2023-01-28T02:58:06.869Z,90.11
2023-01-28T03:01:08.572Z,90.01
2023-01-28T03:03:40.572Z,89.08
2023-01-28T03:06:18.432Z,89.21
2023-01-28T03:09:17.909Z,89.52
2023-01-28T03:12:11.975Z,89.26
2023-01-28T03:14:59.105Z,89.20
2023-01-28T03:17:51.909Z,88.99
2023-01-28T03:20:39.648Z,89.00
2023-01-28T03:23:30.328Z,88.50
2023-01-28T03:26:18.521Z,88.66
2023-01-28T03:29:06.466Z,88.50
2023-01-28T03:31:54.299Z,89.05
2023-01-28T03:34:41.610Z,89.33
2023-01-28T03:37:09.841Z,89.31
2023-01-28T03:39:38.805Z,89.40
2023-01-28T03:42:10.291Z,89.67
2023-01-28T03:44:53.397Z,88.68
2023-01-28T03:47:27.088Z,89.64
2023-01-28T03:49:56.996Z,89.18
2023-01-28T03:52:32.220Z,89.61
2023-01-28T03:54:59.676Z,89.26
2023-01-28T03:57:28.620Z,89.02
2023-01-28T03:59:55.688Z,89.26
2023-01-28T04:02:23.505Z,89.27
2023-01-28T04:04:50.796Z,89.48
2023-01-28T04:07:18.430Z,89.62
2023-01-28T04:09:45.769Z,89.33
2023-01-28T04:12:12.838Z,89.52
2023-01-28T04:14:40.285Z,89.15
2023-01-28T04:17:10.648Z,89.07
2023-01-28T04:19:38.677Z,88.70
2023-01-28T04:22:08.190Z,88.89
2023-01-28T04:24:35.264Z,89.69
2023-01-28T04:27:02.327Z,89.35
2023-01-28T04:29:29.347Z,89.64
2023-01-28T04:31:56.521Z,89.77
2023-01-28T04:34:23.550Z,89.57
2023-01-28T04:36:50.626Z,88.76
2023-01-28T04:39:17.605Z,88.79
2023-01-28T04:41:44.632Z,88.72
2023-01-28T04:44:11.682Z,88.68
2023-01-28T04:46:38.708Z,89.22
2023-01-28T04:49:05.712Z,89.09
2023-01-28T04:51:32.732Z,89.01
2023-01-28T04:53:59.775Z,88.13
2023-01-28T04:56:26.855Z,88.78
2023-01-28T04:58:53.859Z,88.55
2023-01-28T05:01:20.856Z,88.20
2023-01-28T05:03:47.838Z,88.45
2023-01-28T05:06:14.810Z,88.97
2023-01-28T05:08:41.891Z,88.55
2023-01-28T05:11:08.901Z,88.46
2023-01-28T05:13:35.976Z,88.38
2023-01-28T05:16:03.082Z,88.18
2023-01-28T05:18:30.152Z,88.17
2023-01-28T05:20:58.099Z,88.03
2023-01-28T05:23:25.082Z,87.60
2023-01-28T05:25:52.079Z,87.43
2023-01-28T05:28:19.064Z,87.86
2023-01-28T05:30:46.107Z,87.48
2023-01-28T05:33:13.133Z,87.52
2023-01-28T05:35:40.243Z,87.48
2023-01-28T05:38:07.221Z,87.89
2023-01-28T05:40:34.190Z,87.63
2023-01-28T05:43:01.292Z,87.64
2023-01-28T05:45:28.363Z,88.17
2023-01-28T05:47:55.376Z,88.36
2023-01-28T05:50:22.375Z,88.41
2023-01-28T05:52:49.424Z,88.71
2023-01-28T05:55:16.836Z,88.43
2023-01-28T05:57:44.818Z,88.84
2023-01-28T06:00:13.321Z,88.83
2023-01-28T06:02:40.519Z,89.14
2023-01-28T06:05:08.503Z,88.96
2023-01-28T06:07:35.648Z,89.57
2023-01-28T06:10:02.780Z,89.58
2023-01-28T06:12:29.752Z,89.02
2023-01-28T06:14:56.858Z,88.59
2023-01-28T06:17:23.841Z,88.90
2023-01-28T06:19:50.913Z,89.36
2023-01-28T06:22:17.871Z,89.61
2023-01-28T06:24:45.277Z,89.70
2023-01-28T06:27:12.274Z,89.56
2023-01-28T06:29:39.398Z,89.97
2023-01-28T06:32:07.670Z,89.51
2023-01-28T06:34:34.685Z,88.81
2023-01-28T06:37:01.676Z,89.04
2023-01-28T06:39:31.861Z,88.87
2023-01-28T06:41:59.305Z,88.71
2023-01-28T06:44:26.739Z,88.58
2023-01-28T06:46:53.715Z,88.50
2023-01-28T06:49:21.903Z,88.74
2023-01-28T06:51:49.484Z,88.69
2023-01-28T06:54:16.614Z,88.50
2023-01-28T06:56:44.244Z,88.32
2023-01-28T06:59:11.373Z,88.57
2023-01-28T07:01:38.442Z,88.99
2023-01-28T07:04:05.680Z,88.51
2023-01-28T07:06:33.087Z,88.32
2023-01-28T07:09:00.286Z,88.33
2023-01-28T07:11:27.364Z,88.53
2023-01-28T07:13:54.430Z,88.30
2023-01-28T07:16:21.409Z,88.54
2023-01-28T07:18:48.414Z,88.39
2023-01-28T07:21:15.424Z,88.29
2023-01-28T07:23:42.468Z,88.64
2023-01-28T07:26:10.003Z,88.30
2023-01-28T07:28:37.017Z,88.43
2023-01-28T07:31:04.183Z,87.95
2023-01-28T07:33:31.335Z,88.27
2023-01-28T07:35:58.338Z,87.98
2023-01-28T07:38:25.309Z,87.85
2023-01-28T07:40:52.298Z,88.11
2023-01-28T07:43:19.409Z,88.08
2023-01-28T07:45:48.553Z,88.01
2023-01-28T07:48:15.926Z,87.96
2023-01-28T07:50:43.074Z,88.18
2023-01-28T07:53:12.462Z,88.27
2023-01-28T07:55:39.875Z,88.66
2023-01-28T07:58:08.637Z,88.66
2023-01-28T08:00:37.483Z,88.54
2023-01-28T08:03:08.101Z,88.49
2023-01-28T08:05:50.161Z,88.35
2023-01-28T08:08:17.718Z,87.85
2023-01-28T08:10:45.610Z,88.39
2023-01-28T08:13:14.533Z,88.17
2023-01-28T08:15:42.140Z,88.17
2023-01-28T08:18:13.361Z,87.73
2023-01-28T08:20:43.011Z,87.68
2023-01-28T08:23:15.028Z,87.76
2023-01-28T08:25:42.705Z,87.51
2023-01-28T08:28:10.721Z,87.70
2023-01-28T08:30:39.141Z,87.73
2023-01-28T08:33:09.247Z,88.00
2023-01-28T08:35:36.427Z,88.05
2023-01-28T08:38:06.384Z,88.15
2023-01-28T08:40:34.504Z,88.52
2023-01-28T08:43:01.865Z,88.22
2023-01-28T08:45:29.323Z,88.23
2023-01-28T08:48:15.965Z,88.11
2023-01-28T08:50:43.967Z,88.06
2023-01-28T08:53:20.888Z,88.42
2023-01-28T08:55:48.387Z,87.69
2023-01-28T08:58:18.452Z,88.03
2023-01-28T09:00:46.344Z,87.70
2023-01-28T09:03:13.663Z,87.48
2023-01-28T09:05:41.032Z,87.40
2023-01-28T09:08:12.761Z,87.23
2023-01-28T09:10:41.343Z,87.32
2023-01-28T09:13:14.971Z,86.97
2023-01-28T09:15:42.972Z,86.97
2023-01-28T09:18:10.792Z,86.86
2023-01-28T09:20:38.293Z,87.02
2023-01-28T09:23:06.530Z,87.03
2023-01-28T09:25:36.123Z,86.71
2023-01-28T09:28:03.611Z,86.89
2023-01-28T09:30:31.003Z,87.21
2023-01-28T09:32:58.782Z,86.95
2023-01-28T09:35:26.324Z,86.99
2023-01-28T09:37:58.497Z,87.02
2023-01-28T09:40:45.138Z,86.90
2023-01-28T09:43:42.458Z,86.47
2023-01-28T09:46:14.640Z,86.27
2023-01-28T09:48:48.901Z,86.52
2023-01-28T09:51:42.023Z,87.00
2023-01-28T09:54:44.378Z,86.75
2023-01-28T09:57:27.612Z,86.86
2023-01-28T09:59:54.609Z,86.36
2023-01-28T10:02:49.366Z,86.33
2023-01-28T10:06:17.728Z,86.53
2023-01-28T10:09:19.194Z,85.77
2023-01-28T10:12:27.343Z,86.07
2023-01-28T10:15:22.545Z,86.20
2023-01-28T10:18:07.195Z,86.29
2023-01-28T10:21:10.407Z,86.21
2023-01-28T10:24:00.392Z,86.44
2023-01-28T10:26:37.033Z,85.69
2023-01-28T10:29:19.395Z,85.60
2023-01-28T10:32:05.616Z,85.55
2023-01-28T10:34:32.729Z,85.54
2023-01-28T10:37:00.237Z,85.24
2023-01-28T10:39:29.636Z,85.14
2023-01-28T10:41:58.595Z,85.41
2023-01-28T10:44:39.091Z,85.17
2023-01-28T10:47:25.258Z,85.04
2023-01-28T10:49:58.009Z,85.22
2023-01-28T10:52:24.979Z,85.16
2023-01-28T10:55:06.546Z,85.00
2023-01-28T10:57:34.845Z,84.85
2023-01-28T11:00:36.905Z,85.02
2023-01-28T11:03:04.137Z,84.95
2023-01-28T11:05:31.862Z,84.99
2023-01-28T11:08:15.405Z,84.84
2023-01-28T11:10:43.288Z,84.68
2023-01-28T11:13:19.908Z,84.28
2023-01-28T11:16:04.353Z,83.87
2023-01-28T11:18:40.060Z,83.52
2023-01-28T11:21:19.748Z,83.10
2023-01-28T11:23:51.638Z,83.25
2023-01-28T11:26:26.407Z,83.30
2023-01-28T11:28:54.130Z,83.40
2023-01-28T11:31:24.322Z,83.44
2023-01-28T11:34:00.013Z,83.67
2023-01-28T11:36:30.337Z,83.55
2023-01-28T11:39:16.249Z,83.83
2023-01-28T11:41:43.424Z,83.88
2023-01-28T11:44:27.050Z,84.01
2023-01-28T11:47:14.653Z,83.88
2023-01-28T11:50:33.756Z,83.62
2023-01-28T11:53:32.348Z,83.57
2023-01-28T11:56:43.444Z,83.61
2023-01-28T11:59:28.311Z,83.33
2023-01-28T12:02:31.349Z,83.70
2023-01-28T12:05:34.861Z,82.82
2023-01-28T12:08:30.446Z,83.11
2023-01-28T12:11:07.856Z,83.52
2023-01-28T12:14:08.547Z,83.82
2023-01-28T12:17:09.606Z,83.42
2023-01-28T12:20:08.269Z,83.22
2023-01-28T12:23:03.554Z,83.69
2023-01-28T12:25:39.369Z,83.34
2023-01-28T12:28:30.631Z,83.03
2023-01-28T12:31:32.609Z,83.18
2023-01-28T12:34:52.539Z,83.21
2023-01-28T12:38:15.098Z,83.17
2023-01-28T12:41:08.891Z,82.74
2023-01-28T12:43:41.621Z,82.75
2023-01-28T12:46:39.128Z,82.53
2023-01-28T12:49:17.721Z,82.42
2023-01-28T12:52:18.020Z,82.55
2023-01-28T12:55:15.704Z,83.08
2023-01-28T12:57:43.869Z,83.03
2023-01-28T13:00:46.221Z,83.13
2023-01-28T13:03:35.391Z,82.96
2023-01-28T13:06:44.725Z,83.11
2023-01-28T13:09:24.530Z,83.03
2023-01-28T13:11:57.214Z,82.73
2023-01-28T13:14:31.100Z,83.17
2023-01-28T13:17:11.017Z,83.20
2023-01-28T13:19:41.818Z,83.02
2023-01-28T13:22:29.269Z,83.02
2023-01-28T13:24:56.409Z,82.92
2023-01-28T13:27:29.147Z,82.36
2023-01-28T13:30:30.926Z,82.99
2023-01-28T13:33:04.941Z,82.96
2023-01-28T13:35:39.423Z,82.75
2023-01-28T13:38:18.064Z,82.32
2023-01-28T13:40:56.220Z,82.47
2023-01-28T13:43:41.564Z,82.60
2023-01-28T13:46:26.943Z,82.96
2023-01-28T13:48:58.769Z,82.83
2023-01-28T13:51:35.656Z,83.00
2023-01-28T13:54:21.756Z,82.73
2023-01-28T13:57:01.116Z,82.80
2023-01-28T13:59:39.652Z,82.24
2023-01-28T14:02:06.571Z,82.13
2023-01-28T14:05:20.512Z,82.14
2023-01-28T14:07:54.647Z,82.40
2023-01-28T14:10:49.204Z,82.50
2023-01-28T14:13:30.944Z,82.30
2023-01-28T14:16:38.665Z,82.49
2023-01-28T14:19:09.406Z,81.74
2023-01-28T14:21:37.014Z,82.34
2023-01-28T14:24:05.044Z,81.65
2023-01-28T14:27:05.800Z,81.86
2023-01-28T14:30:03.858Z,81.61
2023-01-28T14:32:33.310Z,81.74
2023-01-28T14:35:07.318Z,82.07
2023-01-28T14:37:35.028Z,82.39
2023-01-28T14:40:08.007Z,82.13
2023-01-28T14:42:42.224Z,82.60
2023-01-28T14:45:48.966Z,83.05
2023-01-28T14:48:58.422Z,83.03
2023-01-28T14:52:07.189Z,83.69
2023-01-28T14:55:13.874Z,84.06
2023-01-28T14:57:56.554Z,83.50
2023-01-28T15:00:30.897Z,82.81
2023-01-28T15:02:57.971Z,82.81
2023-01-28T15:05:28.290Z,83.28
2023-01-28T15:07:56.508Z,83.48
2023-01-28T15:10:38.127Z,83.47
2023-01-28T15:13:24.428Z,82.86
2023-01-28T15:15:58.064Z,82.29
2023-01-28T15:18:45.705Z,82.22
2023-01-28T15:21:12.760Z,82.37
2023-01-28T15:23:43.861Z,82.24
2023-01-28T15:26:27.504Z,81.12
2023-01-28T15:28:56.024Z,79.99
2023-01-28T15:31:28.256Z,80.18
2023-01-28T15:34:16.760Z,79.99
2023-01-28T15:36:44.459Z,80.61
2023-01-28T15:39:22.958Z,80.60
2023-01-28T15:41:58.948Z,81.00
2023-01-28T15:44:38.036Z,81.22
2023-01-28T15:47:23.657Z,81.74
2023-01-28T15:49:58.072Z,82.04
2023-01-28T15:52:39.190Z,81.54
2023-01-28T15:55:29.228Z,81.67
2023-01-28T15:57:56.611Z,81.97
2023-01-28T16:00:25.547Z,82.34
2023-01-28T16:02:55.457Z,81.87
2023-01-28T16:05:39.812Z,80.87
2023-01-28T16:08:28.424Z,80.57
2023-01-28T16:10:57.182Z,79.17
2023-01-28T16:13:28.155Z,79.39
2023-01-28T16:15:57.329Z,78.39
2023-01-28T16:18:37.250Z,78.46
2023-01-28T16:21:09.994Z,78.46
2023-01-28T16:23:39.451Z,77.98
2023-01-28T16:26:24.102Z,78.25
2023-01-28T16:28:51.264Z,78.15
2023-01-28T16:31:19.077Z,78.07
2023-01-28T16:33:46.457Z,78.32
2023-01-28T16:36:16.830Z,78.03
2023-01-28T16:38:43.885Z,77.81
2023-01-28T16:41:23.951Z,78.27
2023-01-28T16:43:50.950Z,78.62
2023-01-28T16:46:18.067Z,78.69
2023-01-28T16:48:45.252Z,78.62
2023-01-28T16:51:19.617Z,78.85
2023-01-28T16:53:48.489Z,78.60
2023-01-28T16:56:35.969Z,78.80
2023-01-28T16:59:06.052Z,78.46
2023-01-28T17:01:33.761Z,77.88
2023-01-28T17:04:00.888Z,76.99
2023-01-28T17:06:27.903Z,77.22
2023-01-28T17:08:54.944Z,77.10
2023-01-28T17:11:22.635Z,77.05
2023-01-28T17:13:49.629Z,76.52
2023-01-28T17:16:16.652Z,76.80
2023-01-28T17:18:43.660Z,76.77
2023-01-28T17:21:11.128Z,77.04
2023-01-28T17:23:39.054Z,76.11
2023-01-28T17:26:07.575Z,75.64
2023-01-28T17:28:35.382Z,75.70
2023-01-28T17:31:14.085Z,75.39
2023-01-28T17:33:42.526Z,75.39
2023-01-28T17:36:10.228Z,74.57
2023-01-28T17:38:37.456Z,75.05
2023-01-28T17:41:08.672Z,75.29
2023-01-28T17:43:35.678Z,75.74
2023-01-28T17:46:14.493Z,76.16
2023-01-28T17:48:44.064Z,75.95
2023-01-28T17:51:11.683Z,76.30
2023-01-28T17:53:39.346Z,76.50
2023-01-28T17:56:06.788Z,76.62
2023-01-28T17:58:33.757Z,75.20
2023-01-28T18:01:10.131Z,74.98
2023-01-28T18:03:37.372Z,75.38
2023-01-28T18:06:04.545Z,75.40
2023-01-28T18:08:31.570Z,76.18
2023-01-28T18:10:59.438Z,76.27
2023-01-28T18:13:26.379Z,76.73
2023-01-28T18:15:53.377Z,75.15
2023-01-28T18:18:20.352Z,73.09
2023-01-28T18:20:58.979Z,71.95
2023-01-28T18:23:26.100Z,72.12
2023-01-28T18:25:57.624Z,71.11
2023-01-28T18:28:25.568Z,71.00
2023-01-28T18:30:53.090Z,69.81
2023-01-28T18:33:22.225Z,69.49
2023-01-28T18:35:49.490Z,69.31
2023-01-28T18:38:18.533Z,69.60
2023-01-28T18:40:46.751Z,69.54
2023-01-28T18:43:14.601Z,69.30
2023-01-28T18:45:45.662Z,69.64
2023-01-28T18:48:12.722Z,70.18
2023-01-28T18:50:39.683Z,70.50
2023-01-28T18:53:06.800Z,70.45
2023-01-28T18:55:33.928Z,70.77
2023-01-28T18:58:00.930Z,71.34
2023-01-28T19:00:27.919Z,71.89
2023-01-28T19:02:54.870Z,71.97
2023-01-28T19:05:21.885Z,72.31
2023-01-28T19:07:48.900Z,72.18
2023-01-28T19:10:19.474Z,72.56
2023-01-28T19:12:46.825Z,72.31
2023-01-28T19:15:14.193Z,72.36
2023-01-28T19:17:42.356Z,72.31
2023-01-28T19:20:10.480Z,72.14
2023-01-28T19:22:37.546Z,71.71
2023-01-28T19:25:05.589Z,71.54
2023-01-28T19:27:32.606Z,71.00
2023-01-28T19:29:59.599Z,71.23
2023-01-28T19:32:27.857Z,71.63
2023-01-28T19:34:55.075Z,71.54
2023-01-28T19:37:22.801Z,71.66
2023-01-28T19:39:49.989Z,71.81
2023-01-28T19:42:17.018Z,71.62
2023-01-28T19:44:44.033Z,70.91
2023-01-28T19:47:11.068Z,70.13
2023-01-28T19:49:38.053Z,69.62
2023-01-28T19:52:09.046Z,68.92
2023-01-28T19:54:36.063Z,68.97
2023-01-28T19:57:03.066Z,68.86
2023-01-28T19:59:30.069Z,68.15
2023-01-28T20:01:57.128Z,67.17
2023-01-28T20:04:24.151Z,66.76
2023-01-28T20:06:51.134Z,66.98
2023-01-28T20:09:22.199Z,67.30
2023-01-28T20:11:49.238Z,67.36
2023-01-28T20:14:18.061Z,67.42
2023-01-28T20:16:45.059Z,67.21
2023-01-28T20:19:19.064Z,67.46
2023-01-28T20:21:47.287Z,67.71
2023-01-28T20:24:15.726Z,67.50
2023-01-28T20:26:44.090Z,67.16
2023-01-28T20:29:20.673Z,67.65
2023-01-28T20:32:00.875Z,67.71
2023-01-28T20:34:32.098Z,67.22
2023-01-28T20:36:59.103Z,67.74
2023-01-28T20:39:26.101Z,68.31
2023-01-28T20:41:53.201Z,68.65
2023-01-28T20:44:20.378Z,68.75
2023-01-28T20:46:47.348Z,68.68
2023-01-28T20:49:14.333Z,69.48
2023-01-28T20:51:41.285Z,69.49
2023-01-28T20:54:08.308Z,69.55
2023-01-28T20:56:35.338Z,69.77
2023-01-28T20:59:05.943Z,69.27
2023-01-28T21:01:35.488Z,68.62
2023-01-28T21:04:08.497Z,67.98
2023-01-28T21:06:37.848Z,67.63
2023-01-28T21:09:06.150Z,66.84
2023-01-28T21:11:33.369Z,67.04
2023-01-28T21:14:00.447Z,67.20
2023-01-28T21:16:28.485Z,67.13
2023-01-28T21:18:55.467Z,66.76
2023-01-28T21:21:26.494Z,66.91
2023-01-28T21:23:56.820Z,67.06
2023-01-28T21:26:24.563Z,66.99
2023-01-28T21:28:52.083Z,66.56
2023-01-28T21:31:25.413Z,66.75
2023-01-28T21:33:55.433Z,67.01
2023-01-28T21:36:24.144Z,67.00
2023-01-28T21:39:00.058Z,66.73
2023-01-28T21:41:27.919Z,66.96
2023-01-28T21:43:57.599Z,67.24
2023-01-28T21:46:28.865Z,67.45
2023-01-28T21:48:58.407Z,67.88
2023-01-28T21:51:35.594Z,67.67
2023-01-28T21:54:04.876Z,67.06
2023-01-28T21:56:32.023Z,67.34
2023-01-28T21:59:17.504Z,66.83
2023-01-28T22:01:45.284Z,67.12
2023-01-28T22:04:13.161Z,66.55
2023-01-28T22:06:42.288Z,66.60
2023-01-28T22:09:11.937Z,66.13
2023-01-28T22:11:40.711Z,66.31
2023-01-28T22:14:08.027Z,66.38
2023-01-28T22:16:35.880Z,65.79
2023-01-28T22:19:03.478Z,65.42
2023-01-28T22:21:31.203Z,65.69
2023-01-28T22:23:58.578Z,65.11
2023-01-28T22:26:25.662Z,65.39
2023-01-28T22:28:52.668Z,65.11
2023-01-28T22:31:19.849Z,65.05
2023-01-28T22:33:46.965Z,64.34
2023-01-28T22:36:16.288Z,64.12
2023-01-28T22:38:45.259Z,64.17
2023-01-28T22:41:18.943Z,64.25
2023-01-28T22:43:47.105Z,64.14
2023-01-28T22:46:15.134Z,64.32
2023-01-28T22:48:42.195Z,64.22
2023-01-28T22:51:18.873Z,64.52
2023-01-28T22:53:47.397Z,64.84
2023-01-28T22:56:15.555Z,64.96
2023-01-28T22:58:42.864Z,65.22
2023-01-28T23:01:10.309Z,65.00
2023-01-28T23:03:37.452Z,64.91
2023-01-28T23:06:05.857Z,65.44
2023-01-28T23:08:33.613Z,65.92
2023-01-28T23:11:02.745Z,65.32
2023-01-28T23:13:50.943Z,64.76
2023-01-28T23:16:36.575Z,64.70
2023-01-28T23:19:22.953Z,64.99
2023-01-28T23:22:09.470Z,65.83
2023-01-28T23:24:36.450Z,65.78
2023-01-28T23:27:03.726Z,65.89
2023-01-28T23:29:31.811Z,65.07
2023-01-28T23:32:09.846Z,65.25
2023-01-28T23:34:44.533Z,65.45
2023-01-28T23:37:15.776Z,65.71
2023-01-28T23:39:43.271Z,65.38
2023-01-28T23:42:21.237Z,65.44
2023-01-28T23:44:48.443Z,65.67
2023-01-28T23:47:15.960Z,65.81
2023-01-28T23:49:43.001Z,65.75
2023-01-28T23:52:10.684Z,66.08
2023-01-28T23:54:37.917Z,65.96
2023-01-28T23:57:05.147Z,65.51
2023-01-28T23:59:32.576Z,65.71
